sensor_id;sensor_type;location;lat;lon;timestamp;pressure;altitude;pressure_sealevel;temperature;humidity
9672;BME280;4874;43.568;27.824;2023-03-21T00:00:58;99026.75;;;7.52;100.00
9672;BME280;4874;43.568;27.824;2023-03-21T00:03:25;99030.38;;;7.51;100.00
9672;BME280;4874;43.568;27.824;2023-03-21T00:05:52;99003.97;;;7.51;100.00
9672;BME280;4874;43.568;27.824;2023-03-21T00:08:21;99029.41;;;7.83;100.00
9672;BME280;4874;43.568;27.824;2023-03-21T00:11:01;99027.78;;;7.71;100.00
9672;BME280;4874;43.568;27.824;2023-03-21T00:13:30;99012.94;;;7.59;100.00
9672;BME280;4874;43.568;27.824;2023-03-21T00:16:14;99018.59;;;7.86;100.00
9672;BME280;4874;43.568;27.824;2023-03-21T00:18:47;99014.19;;;7.76;100.00
9672;BME280;4874;43.568;27.824;2023-03-21T00:21:16;99021.06;;;7.67;100.00
9672;BME280;4874;43.568;27.824;2023-03-21T00:24:05;99000.78;;;7.68;100.00
9672;BME280;4874;43.568;27.824;2023-03-21T00:26:32;99013.28;;;8.18;100.00
9672;BME280;4874;43.568;27.824;2023-03-21T00:28:59;99014.09;;;7.98;100.00
9672;BME280;4874;43.568;27.824;2023-03-21T00:31:25;99009.13;;;8.04;100.00
9672;BME280;4874;43.568;27.824;2023-03-21T00:33:52;98983.66;;;7.51;100.00
9672;BME280;4874;43.568;27.824;2023-03-21T00:36:19;98991.56;;;7.51;100.00
9672;BME280;4874;43.568;27.824;2023-03-21T00:38:47;99002.44;;;7.69;100.00
9672;BME280;4874;43.568;27.824;2023-03-21T00:41:13;98966.66;;;7.96;100.00
9672;BME280;4874;43.568;27.824;2023-03-21T00:43:56;98968.00;;;8.11;100.00
9672;BME280;4874;43.568;27.824;2023-03-21T00:46:23;98992.81;;;7.99;100.00
9672;BME280;4874;43.568;27.824;2023-03-21T00:48:55;98996.81;;;7.94;100.00
9672;BME280;4874;43.568;27.824;2023-03-21T00:51:22;98984.72;;;8.12;100.00
9672;BME280;4874;43.568;27.824;2023-03-21T00:53:54;98987.47;;;7.90;100.00
9672;BME280;4874;43.568;27.824;2023-03-21T00:56:21;98990.75;;;7.51;100.00
9672;BME280;4874;43.568;27.824;2023-03-21T00:58:49;98981.13;;;7.50;100.00
9672;BME280;4874;43.568;27.824;2023-03-21T01:01:17;98974.47;;;7.24;100.00
9672;BME280;4874;43.568;27.824;2023-03-21T01:03:44;98969.63;;;7.51;100.00
9672;BME280;4874;43.568;27.824;2023-03-21T01:06:17;98960.44;;;7.66;100.00
9672;BME280;4874;43.568;27.824;2023-03-21T01:08:47;98963.78;;;7.36;100.00
9672;BME280;4874;43.568;27.824;2023-03-21T01:11:25;98934.00;;;7.34;100.00
9672;BME280;4874;43.568;27.824;2023-03-21T01:13:52;98956.69;;;7.37;100.00
9672;BME280;4874;43.568;27.824;2023-03-21T01:16:32;98933.13;;;6.91;100.00
9672;BME280;4874;43.568;27.824;2023-03-21T01:19:00;98934.19;;;6.99;100.00
9672;BME280;4874;43.568;27.824;2023-03-21T01:21:31;98952.19;;;7.59;100.00
9672;BME280;4874;43.568;27.824;2023-03-21T01:23:58;98954.84;;;7.48;100.00
9672;BME280;4874;43.568;27.824;2023-03-21T01:26:24;98952.72;;;7.74;100.00
9672;BME280;4874;43.568;27.824;2023-03-21T01:28:51;98946.50;;;7.64;100.00
9672;BME280;4874;43.568;27.824;2023-03-21T01:31:18;98951.03;;;7.73;100.00
9672;BME280;4874;43.568;27.824;2023-03-21T01:33:45;98948.59;;;7.81;100.00
9672;BME280;4874;43.568;27.824;2023-03-21T01:36:20;98951.22;;;7.81;100.00
9672;BME280;4874;43.568;27.824;2023-03-21T01:38:49;98966.25;;;7.80;100.00
9672;BME280;4874;43.568;27.824;2023-03-21T01:44:13;98965.69;;;7.97;100.00
9672;BME280;4874;43.568;27.824;2023-03-21T01:46:48;98963.59;;;7.80;100.00
9672;BME280;4874;43.568;27.824;2023-03-21T01:49:37;98966.56;;;7.87;100.00
9672;BME280;4874;43.568;27.824;2023-03-21T01:52:08;98966.34;;;8.10;100.00
9672;BME280;4874;43.568;27.824;2023-03-21T01:54:46;98970.94;;;8.29;100.00
9672;BME280;4874;43.568;27.824;2023-03-21T01:57:21;98952.66;;;7.85;100.00
9672;BME280;4874;43.568;27.824;2023-03-21T01:59:55;98949.63;;;7.58;100.00
9672;BME280;4874;43.568;27.824;2023-03-21T02:02:26;98955.47;;;7.72;100.00
9672;BME280;4874;43.568;27.824;2023-03-21T02:04:55;98954.13;;;7.78;100.00
9672;BME280;4874;43.568;27.824;2023-03-21T02:07:28;98921.31;;;7.28;100.00
9672;BME280;4874;43.568;27.824;2023-03-21T02:09:55;98971.22;;;7.94;100.00
9672;BME280;4874;43.568;27.824;2023-03-21T02:12:25;98970.06;;;8.08;100.00
9672;BME280;4874;43.568;27.824;2023-03-21T02:14:53;98877.94;;;7.42;100.00
9672;BME280;4874;43.568;27.824;2023-03-21T02:22:53;98961.63;;;7.93;100.00
9672;BME280;4874;43.568;27.824;2023-03-21T02:34:11;98969.47;;;8.36;100.00
9672;BME280;4874;43.568;27.824;2023-03-21T02:37:14;98966.56;;;8.39;100.00
9672;BME280;4874;43.568;27.824;2023-03-21T02:45:34;98966.78;;;7.95;100.00
9672;BME280;4874;43.568;27.824;2023-03-21T02:48:09;98957.59;;;8.30;100.00
9672;BME280;4874;43.568;27.824;2023-03-21T02:50:53;98965.56;;;8.40;100.00
9672;BME280;4874;43.568;27.824;2023-03-21T02:53:23;98942.75;;;8.39;100.00
9672;BME280;4874;43.568;27.824;2023-03-21T02:55:52;98963.28;;;8.56;100.00
9672;BME280;4874;43.568;27.824;2023-03-21T02:58:22;98924.44;;;8.26;100.00
9672;BME280;4874;43.568;27.824;2023-03-21T03:00:51;98954.97;;;7.78;100.00
9672;BME280;4874;43.568;27.824;2023-03-21T03:03:21;98963.06;;;7.66;100.00
9672;BME280;4874;43.568;27.824;2023-03-21T03:06:00;98964.84;;;7.97;100.00
9672;BME280;4874;43.568;27.824;2023-03-21T03:11:37;98934.00;;;7.66;100.00
9672;BME280;4874;43.568;27.824;2023-03-21T03:18:12;98962.63;;;8.33;100.00
9672;BME280;4874;43.568;27.824;2023-03-21T03:23:39;98961.63;;;8.14;100.00
9672;BME280;4874;43.568;27.824;2023-03-21T03:26:18;98924.69;;;8.03;100.00
9672;BME280;4874;43.568;27.824;2023-03-21T03:28:52;98957.81;;;7.86;100.00
9672;BME280;4874;43.568;27.824;2023-03-21T03:31:25;98918.97;;;7.66;100.00
9672;BME280;4874;43.568;27.824;2023-03-21T03:33:55;98962.56;;;8.24;100.00
9672;BME280;4874;43.568;27.824;2023-03-21T03:36:27;98939.22;;;8.29;100.00
9672;BME280;4874;43.568;27.824;2023-03-21T03:38:59;98947.69;;;7.91;100.00
9672;BME280;4874;43.568;27.824;2023-03-21T03:41:30;98953.50;;;8.06;100.00
9672;BME280;4874;43.568;27.824;2023-03-21T03:44:19;98954.38;;;8.27;100.00
9672;BME280;4874;43.568;27.824;2023-03-21T03:49:24;98942.56;;;8.10;100.00
9672;BME280;4874;43.568;27.824;2023-03-21T03:51:58;98933.13;;;7.97;100.00
9672;BME280;4874;43.568;27.824;2023-03-21T03:54:31;98944.22;;;8.32;100.00
9672;BME280;4874;43.568;27.824;2023-03-21T03:56:58;98928.81;;;8.16;100.00
9672;BME280;4874;43.568;27.824;2023-03-21T03:59:26;98943.06;;;8.04;100.00
9672;BME280;4874;43.568;27.824;2023-03-21T04:01:53;98925.22;;;8.17;100.00
9672;BME280;4874;43.568;27.824;2023-03-21T04:04:20;98924.44;;;8.26;100.00
9672;BME280;4874;43.568;27.824;2023-03-21T04:06:48;98929.38;;;8.20;100.00
9672;BME280;4874;43.568;27.824;2023-03-21T04:09:18;98921.31;;;8.01;100.00
9672;BME280;4874;43.568;27.824;2023-03-21T04:11:54;98899.44;;;7.58;100.00
9672;BME280;4874;43.568;27.824;2023-03-21T04:14:22;98916.28;;;7.77;100.00
9672;BME280;4874;43.568;27.824;2023-03-21T04:16:49;98918.03;;;7.88;100.00
9672;BME280;4874;43.568;27.824;2023-03-21T04:19:17;98921.41;;;7.90;100.00
9672;BME280;4874;43.568;27.824;2023-03-21T04:21:44;98915.31;;;7.99;100.00
9672;BME280;4874;43.568;27.824;2023-03-21T04:24:14;98921.13;;;7.72;100.00
9672;BME280;4874;43.568;27.824;2023-03-21T04:26:40;98916.34;;;7.66;100.00
9672;BME280;4874;43.568;27.824;2023-03-21T04:29:07;98922.16;;;7.81;100.00
9672;BME280;4874;43.568;27.824;2023-03-21T04:31:34;98925.53;;;8.03;100.00
9672;BME280;4874;43.568;27.824;2023-03-21T04:34:04;98890.13;;;7.74;100.00
9672;BME280;4874;43.568;27.824;2023-03-21T04:36:35;98918.16;;;7.66;100.00
9672;BME280;4874;43.568;27.824;2023-03-21T04:39:10;98878.59;;;7.96;100.00
9672;BME280;4874;43.568;27.824;2023-03-21T04:41:40;98919.91;;;8.17;100.00
9672;BME280;4874;43.568;27.824;2023-03-21T04:44:08;98916.50;;;8.26;100.00
9672;BME280;4874;43.568;27.824;2023-03-21T04:46:35;98914.44;;;8.30;100.00
9672;BME280;4874;43.568;27.824;2023-03-21T04:49:02;98915.44;;;8.18;100.00
9672;BME280;4874;43.568;27.824;2023-03-21T04:51:29;98914.88;;;8.14;100.00
9672;BME280;4874;43.568;27.824;2023-03-21T04:53:56;98925.28;;;8.27;100.00
9672;BME280;4874;43.568;27.824;2023-03-21T04:56:26;98931.81;;;8.53;100.00
9672;BME280;4874;43.568;27.824;2023-03-21T04:59:00;98927.22;;;8.25;100.00
9672;BME280;4874;43.568;27.824;2023-03-21T05:01:28;98923.25;;;7.99;100.00
9672;BME280;4874;43.568;27.824;2023-03-21T05:03:59;98928.94;;;8.15;100.00
9672;BME280;4874;43.568;27.824;2023-03-21T05:06:27;98919.09;;;8.47;100.00
9672;BME280;4874;43.568;27.824;2023-03-21T05:08:55;98943.06;;;8.46;100.00
9672;BME280;4874;43.568;27.824;2023-03-21T05:11:26;98935.22;;;8.35;100.00
9672;BME280;4874;43.568;27.824;2023-03-21T05:13:53;98934.97;;;8.47;100.00
9672;BME280;4874;43.568;27.824;2023-03-21T05:16:19;98938.59;;;8.46;100.00
9672;BME280;4874;43.568;27.824;2023-03-21T05:18:51;98940.78;;;8.62;100.00
9672;BME280;4874;43.568;27.824;2023-03-21T05:21:21;98946.00;;;8.52;100.00
9672;BME280;4874;43.568;27.824;2023-03-21T05:23:48;98942.13;;;8.56;100.00
9672;BME280;4874;43.568;27.824;2023-03-21T05:26:21;98946.88;;;8.62;100.00
9672;BME280;4874;43.568;27.824;2023-03-21T05:28:48;98920.19;;;8.65;100.00
9672;BME280;4874;43.568;27.824;2023-03-21T05:31:16;98951.44;;;8.81;100.00
9672;BME280;4874;43.568;27.824;2023-03-21T05:33:44;98954.66;;;8.84;100.00
9672;BME280;4874;43.568;27.824;2023-03-21T05:36:12;98955.97;;;8.69;100.00
9672;BME280;4874;43.568;27.824;2023-03-21T05:38:39;98964.31;;;8.65;100.00
9672;BME280;4874;43.568;27.824;2023-03-21T05:41:16;98931.34;;;9.18;100.00
9672;BME280;4874;43.568;27.824;2023-03-21T05:43:44;98943.72;;;9.17;100.00
9672;BME280;4874;43.568;27.824;2023-03-21T05:46:11;98952.13;;;9.41;100.00
9672;BME280;4874;43.568;27.824;2023-03-21T05:48:38;98955.16;;;9.18;100.00
9672;BME280;4874;43.568;27.824;2023-03-21T05:51:05;98950.72;;;9.18;100.00
9672;BME280;4874;43.568;27.824;2023-03-21T05:53:32;98950.47;;;8.91;100.00
9672;BME280;4874;43.568;27.824;2023-03-21T05:55:58;98941.44;;;8.84;100.00
9672;BME280;4874;43.568;27.824;2023-03-21T05:58:25;98945.94;;;8.73;100.00
9672;BME280;4874;43.568;27.824;2023-03-21T06:00:52;98949.59;;;9.11;100.00
9672;BME280;4874;43.568;27.824;2023-03-21T06:03:19;98948.88;;;9.09;100.00
9672;BME280;4874;43.568;27.824;2023-03-21T06:05:45;98937.81;;;8.55;100.00
9672;BME280;4874;43.568;27.824;2023-03-21T06:08:12;98954.56;;;8.65;100.00
9672;BME280;4874;43.568;27.824;2023-03-21T06:10:39;98946.66;;;8.75;100.00
9672;BME280;4874;43.568;27.824;2023-03-21T06:13:05;98933.22;;;8.57;100.00
9672;BME280;4874;43.568;27.824;2023-03-21T06:15:32;98966.34;;;9.31;100.00
9672;BME280;4874;43.568;27.824;2023-03-21T06:17:59;98946.16;;;8.81;100.00
9672;BME280;4874;43.568;27.824;2023-03-21T06:20:26;98951.56;;;8.79;100.00
9672;BME280;4874;43.568;27.824;2023-03-21T06:22:52;98949.53;;;8.62;100.00
9672;BME280;4874;43.568;27.824;2023-03-21T06:25:19;98954.47;;;8.76;100.00
9672;BME280;4874;43.568;27.824;2023-03-21T06:27:46;98958.00;;;8.56;100.00
9672;BME280;4874;43.568;27.824;2023-03-21T06:30:13;98941.72;;;8.61;100.00
9672;BME280;4874;43.568;27.824;2023-03-21T06:32:40;98937.28;;;8.31;100.00
9672;BME280;4874;43.568;27.824;2023-03-21T06:35:07;98947.78;;;8.72;100.00
9672;BME280;4874;43.568;27.824;2023-03-21T06:37:34;98935.94;;;8.76;100.00
9672;BME280;4874;43.568;27.824;2023-03-21T06:40:00;98930.56;;;8.57;100.00
9672;BME280;4874;43.568;27.824;2023-03-21T06:42:27;98922.69;;;8.67;100.00
9672;BME280;4874;43.568;27.824;2023-03-21T06:44:55;98921.41;;;8.61;100.00
9672;BME280;4874;43.568;27.824;2023-03-21T06:47:22;98895.66;;;8.33;100.00
9672;BME280;4874;43.568;27.824;2023-03-21T06:49:48;98919.94;;;8.48;100.00
9672;BME280;4874;43.568;27.824;2023-03-21T06:52:15;98907.75;;;8.56;100.00
9672;BME280;4874;43.568;27.824;2023-03-21T06:54:41;98910.03;;;8.70;100.00
9672;BME280;4874;43.568;27.824;2023-03-21T06:57:08;98935.84;;;9.46;100.00
9672;BME280;4874;43.568;27.824;2023-03-21T06:59:35;98957.75;;;9.67;100.00
9672;BME280;4874;43.568;27.824;2023-03-21T07:02:02;98974.19;;;9.51;100.00
9672;BME280;4874;43.568;27.824;2023-03-21T07:04:28;98975.19;;;9.79;100.00
9672;BME280;4874;43.568;27.824;2023-03-21T07:06:55;98976.97;;;9.50;100.00
9672;BME280;4874;43.568;27.824;2023-03-21T07:09:22;98974.06;;;9.72;100.00
9672;BME280;4874;43.568;27.824;2023-03-21T07:11:53;98981.75;;;9.85;100.00
9672;BME280;4874;43.568;27.824;2023-03-21T07:14:20;98982.03;;;9.91;100.00
9672;BME280;4874;43.568;27.824;2023-03-21T07:16:46;98975.88;;;9.62;100.00
9672;BME280;4874;43.568;27.824;2023-03-21T07:19:13;98968.91;;;9.99;100.00
9672;BME280;4874;43.568;27.824;2023-03-21T07:21:41;98981.06;;;10.11;100.00
9672;BME280;4874;43.568;27.824;2023-03-21T07:24:07;98976.59;;;10.31;100.00
9672;BME280;4874;43.568;27.824;2023-03-21T07:26:34;98971.59;;;10.74;100.00
9672;BME280;4874;43.568;27.824;2023-03-21T07:29:01;98976.34;;;10.71;100.00
9672;BME280;4874;43.568;27.824;2023-03-21T07:31:27;98979.00;;;10.71;100.00
9672;BME280;4874;43.568;27.824;2023-03-21T07:33:55;98972.69;;;10.35;100.00
9672;BME280;4874;43.568;27.824;2023-03-21T07:36:22;98940.09;;;10.42;100.00
9672;BME280;4874;43.568;27.824;2023-03-21T07:38:49;98968.94;;;10.74;100.00
9672;BME280;4874;43.568;27.824;2023-03-21T07:41:16;98969.13;;;10.90;100.00
9672;BME280;4874;43.568;27.824;2023-03-21T07:43:42;98966.84;;;11.05;100.00
9672;BME280;4874;43.568;27.824;2023-03-21T07:46:09;98978.06;;;10.62;100.00
9672;BME280;4874;43.568;27.824;2023-03-21T07:48:36;98978.38;;;10.86;100.00
9672;BME280;4874;43.568;27.824;2023-03-21T07:51:03;98988.47;;;10.83;100.00
9672;BME280;4874;43.568;27.824;2023-03-21T07:53:32;98980.84;;;10.97;100.00
9672;BME280;4874;43.568;27.824;2023-03-21T07:55:58;98981.31;;;11.20;100.00
9672;BME280;4874;43.568;27.824;2023-03-21T07:58:25;98983.00;;;11.21;100.00
9672;BME280;4874;43.568;27.824;2023-03-21T08:00:53;98957.06;;;10.68;100.00
9672;BME280;4874;43.568;27.824;2023-03-21T08:03:21;98975.59;;;10.78;100.00
9672;BME280;4874;43.568;27.824;2023-03-21T08:05:49;98949.69;;;10.16;100.00
9672;BME280;4874;43.568;27.824;2023-03-21T08:08:16;98982.72;;;10.87;100.00
9672;BME280;4874;43.568;27.824;2023-03-21T08:10:43;98985.59;;;10.94;100.00
9672;BME280;4874;43.568;27.824;2023-03-21T08:13:11;98985.50;;;10.95;100.00
9672;BME280;4874;43.568;27.824;2023-03-21T08:15:38;98987.06;;;10.32;100.00
9672;BME280;4874;43.568;27.824;2023-03-21T08:18:08;98989.72;;;10.79;100.00
9672;BME280;4874;43.568;27.824;2023-03-21T08:20:36;98978.31;;;11.05;100.00
9672;BME280;4874;43.568;27.824;2023-03-21T08:23:03;98957.63;;;10.72;100.00
9672;BME280;4874;43.568;27.824;2023-03-21T08:25:29;98971.22;;;10.96;100.00
9672;BME280;4874;43.568;27.824;2023-03-21T08:27:56;98964.78;;;10.52;100.00
9672;BME280;4874;43.568;27.824;2023-03-21T08:30:25;98978.56;;;10.75;100.00
9672;BME280;4874;43.568;27.824;2023-03-21T08:32:58;98963.72;;;11.09;100.00
9672;BME280;4874;43.568;27.824;2023-03-21T08:35:27;98955.84;;;10.90;100.00
9672;BME280;4874;43.568;27.824;2023-03-21T08:37:54;98967.88;;;10.48;100.00
9672;BME280;4874;43.568;27.824;2023-03-21T08:40:21;98956.78;;;9.97;100.00
9672;BME280;4874;43.568;27.824;2023-03-21T08:42:48;98928.03;;;9.92;100.00
9672;BME280;4874;43.568;27.824;2023-03-21T08:45:15;98946.50;;;10.49;100.00
9672;BME280;4874;43.568;27.824;2023-03-21T08:47:42;98967.13;;;10.75;100.00
9672;BME280;4874;43.568;27.824;2023-03-21T08:50:11;98967.06;;;11.38;100.00
9672;BME280;4874;43.568;27.824;2023-03-21T08:52:38;98948.63;;;10.83;100.00
9672;BME280;4874;43.568;27.824;2023-03-21T08:55:06;98954.53;;;10.21;100.00
9672;BME280;4874;43.568;27.824;2023-03-21T08:57:33;98951.34;;;11.00;100.00
9672;BME280;4874;43.568;27.824;2023-03-21T09:00:00;98952.56;;;10.32;100.00
9672;BME280;4874;43.568;27.824;2023-03-21T09:02:26;98945.59;;;10.22;100.00
9672;BME280;4874;43.568;27.824;2023-03-21T09:04:53;98953.84;;;10.28;100.00
9672;BME280;4874;43.568;27.824;2023-03-21T09:07:24;98948.66;;;10.27;100.00
9672;BME280;4874;43.568;27.824;2023-03-21T09:09:53;98944.75;;;9.93;100.00
9672;BME280;4874;43.568;27.824;2023-03-21T09:12:39;98957.19;;;9.83;100.00
9672;BME280;4874;43.568;27.824;2023-03-21T09:15:08;98960.78;;;10.39;100.00
9672;BME280;4874;43.568;27.824;2023-03-21T09:17:35;98969.91;;;9.89;100.00
9672;BME280;4874;43.568;27.824;2023-03-21T09:20:02;98968.63;;;9.93;100.00
9672;BME280;4874;43.568;27.824;2023-03-21T09:22:37;98980.63;;;10.35;100.00
9672;BME280;4874;43.568;27.824;2023-03-21T09:25:07;98977.84;;;9.79;100.00
9672;BME280;4874;43.568;27.824;2023-03-21T09:27:36;98978.41;;;10.02;100.00
9672;BME280;4874;43.568;27.824;2023-03-21T09:30:04;98905.00;;;9.74;100.00
9672;BME280;4874;43.568;27.824;2023-03-21T09:32:33;98980.66;;;10.16;100.00
9672;BME280;4874;43.568;27.824;2023-03-21T09:35:00;98975.06;;;10.19;100.00
9672;BME280;4874;43.568;27.824;2023-03-21T09:37:26;98984.06;;;10.64;100.00
9672;BME280;4874;43.568;27.824;2023-03-21T09:39:54;98979.75;;;10.53;100.00
9672;BME280;4874;43.568;27.824;2023-03-21T09:42:51;98978.25;;;10.03;100.00
9672;BME280;4874;43.568;27.824;2023-03-21T09:45:51;98978.75;;;10.64;100.00
9672;BME280;4874;43.568;27.824;2023-03-21T09:51:21;98975.19;;;10.08;100.00
9672;BME280;4874;43.568;27.824;2023-03-21T09:53:49;98947.31;;;9.75;100.00
9672;BME280;4874;43.568;27.824;2023-03-21T09:56:17;98985.81;;;9.89;100.00
9672;BME280;4874;43.568;27.824;2023-03-21T09:58:54;98999.47;;;10.32;100.00
9672;BME280;4874;43.568;27.824;2023-03-21T10:01:26;98993.75;;;10.27;100.00
9672;BME280;4874;43.568;27.824;2023-03-21T10:03:56;98987.63;;;10.17;100.00
9672;BME280;4874;43.568;27.824;2023-03-21T10:06:26;98987.28;;;10.58;100.00
9672;BME280;4874;43.568;27.824;2023-03-21T10:09:14;98992.22;;;10.34;100.00
9672;BME280;4874;43.568;27.824;2023-03-21T10:11:44;98982.09;;;10.66;100.00
9672;BME280;4874;43.568;27.824;2023-03-21T10:14:20;98960.75;;;10.85;100.00
9672;BME280;4874;43.568;27.824;2023-03-21T10:16:55;98987.16;;;10.40;100.00
9672;BME280;4874;43.568;27.824;2023-03-21T10:19:23;98981.38;;;10.74;100.00
9672;BME280;4874;43.568;27.824;2023-03-21T10:21:52;98976.47;;;11.06;100.00
9672;BME280;4874;43.568;27.824;2023-03-21T10:24:28;98942.84;;;10.97;100.00
9672;BME280;4874;43.568;27.824;2023-03-21T10:26:57;98974.03;;;10.95;100.00
9672;BME280;4874;43.568;27.824;2023-03-21T10:29:40;98968.94;;;11.01;100.00
9672;BME280;4874;43.568;27.824;2023-03-21T10:32:16;98953.16;;;11.00;100.00
9672;BME280;4874;43.568;27.824;2023-03-21T10:34:54;98922.00;;;11.19;100.00
9672;BME280;4874;43.568;27.824;2023-03-21T10:37:27;98953.28;;;12.23;100.00
9672;BME280;4874;43.568;27.824;2023-03-21T10:39:54;98956.03;;;11.33;100.00
9672;BME280;4874;43.568;27.824;2023-03-21T10:42:24;98960.47;;;11.42;100.00
9672;BME280;4874;43.568;27.824;2023-03-21T10:44:53;98955.66;;;12.08;100.00
9672;BME280;4874;43.568;27.824;2023-03-21T10:47:27;98942.28;;;12.77;100.00
9672;BME280;4874;43.568;27.824;2023-03-21T10:50:00;98917.53;;;12.84;100.00
9672;BME280;4874;43.568;27.824;2023-03-21T10:52:34;98945.97;;;12.76;100.00
9672;BME280;4874;43.568;27.824;2023-03-21T10:55:15;98930.22;;;12.90;100.00
9672;BME280;4874;43.568;27.824;2023-03-21T10:57:45;98913.34;;;12.48;100.00
9672;BME280;4874;43.568;27.824;2023-03-21T11:00:21;98879.16;;;12.61;100.00
9672;BME280;4874;43.568;27.824;2023-03-21T11:02:54;98918.88;;;13.22;100.00
9672;BME280;4874;43.568;27.824;2023-03-21T11:05:35;98912.88;;;13.20;100.00
9672;BME280;4874;43.568;27.824;2023-03-21T11:08:11;98915.38;;;12.88;100.00
9672;BME280;4874;43.568;27.824;2023-03-21T11:11:03;98905.69;;;13.13;100.00
9672;BME280;4874;43.568;27.824;2023-03-21T11:13:42;98906.38;;;13.15;100.00
9672;BME280;4874;43.568;27.824;2023-03-21T11:18:42;98897.50;;;13.06;100.00
9672;BME280;4874;43.568;27.824;2023-03-21T11:21:12;98910.44;;;13.01;100.00
9672;BME280;4874;43.568;27.824;2023-03-21T11:23:44;98905.94;;;12.93;100.00
9672;BME280;4874;43.568;27.824;2023-03-21T11:26:36;98905.66;;;13.05;100.00
9672;BME280;4874;43.568;27.824;2023-03-21T11:29:31;98889.09;;;12.93;100.00
9672;BME280;4874;43.568;27.824;2023-03-21T11:37:37;98880.13;;;13.92;100.00
9672;BME280;4874;43.568;27.824;2023-03-21T11:42:44;98876.25;;;14.35;100.00
9672;BME280;4874;43.568;27.824;2023-03-21T11:45:14;98871.09;;;14.33;100.00
9672;BME280;4874;43.568;27.824;2023-03-21T11:47:41;98880.41;;;13.33;100.00
9672;BME280;4874;43.568;27.824;2023-03-21T11:50:30;98877.06;;;12.89;100.00
9672;BME280;4874;43.568;27.824;2023-03-21T12:06:49;98872.25;;;13.42;100.00
9672;BME280;4874;43.568;27.824;2023-03-21T12:11:59;98879.03;;;12.71;100.00
9672;BME280;4874;43.568;27.824;2023-03-21T12:14:50;98876.03;;;13.16;100.00
9672;BME280;4874;43.568;27.824;2023-03-21T12:17:37;98864.88;;;13.20;100.00
9672;BME280;4874;43.568;27.824;2023-03-21T12:20:22;98875.53;;;13.12;100.00
9672;BME280;4874;43.568;27.824;2023-03-21T12:25:43;98870.94;;;13.54;100.00
9672;BME280;4874;43.568;27.824;2023-03-21T12:33:53;98867.53;;;12.70;100.00
9672;BME280;4874;43.568;27.824;2023-03-21T12:44:20;98818.84;;;11.67;100.00
9672;BME280;4874;43.568;27.824;2023-03-21T12:51:53;98851.88;;;11.82;100.00
9672;BME280;4874;43.568;27.824;2023-03-21T12:56:57;98849.78;;;10.89;100.00
9672;BME280;4874;43.568;27.824;2023-03-21T12:59:39;98855.72;;;11.18;100.00
9672;BME280;4874;43.568;27.824;2023-03-21T13:05:14;98851.88;;;10.85;100.00
9672;BME280;4874;43.568;27.824;2023-03-21T13:07:54;98855.06;;;10.71;100.00
9672;BME280;4874;43.568;27.824;2023-03-21T13:10:24;98846.47;;;10.87;100.00
9672;BME280;4874;43.568;27.824;2023-03-21T13:13:16;98779.75;;;10.72;100.00
9672;BME280;4874;43.568;27.824;2023-03-21T13:24:33;98850.66;;;10.52;100.00
9672;BME280;4874;43.568;27.824;2023-03-21T13:30:03;98836.28;;;10.55;100.00
9672;BME280;4874;43.568;27.824;2023-03-21T13:32:41;98849.59;;;11.00;100.00
9672;BME280;4874;43.568;27.824;2023-03-21T13:35:22;98840.81;;;10.72;100.00
9672;BME280;4874;43.568;27.824;2023-03-21T13:37:57;98846.81;;;10.37;100.00
9672;BME280;4874;43.568;27.824;2023-03-21T13:43:03;98809.69;;;10.37;100.00
9672;BME280;4874;43.568;27.824;2023-03-21T13:45:43;98828.59;;;10.79;100.00
9672;BME280;4874;43.568;27.824;2023-03-21T13:48:30;98836.13;;;10.29;100.00
9672;BME280;4874;43.568;27.824;2023-03-21T13:51:07;98818.16;;;10.50;100.00
9672;BME280;4874;43.568;27.824;2023-03-21T13:53:40;98831.97;;;10.54;100.00
9672;BME280;4874;43.568;27.824;2023-03-21T14:04:18;98848.44;;;10.57;100.00
9672;BME280;4874;43.568;27.824;2023-03-21T14:07:11;98848.66;;;10.37;100.00
9672;BME280;4874;43.568;27.824;2023-03-21T14:09:42;98842.19;;;9.93;100.00
9672;BME280;4874;43.568;27.824;2023-03-21T14:12:13;98848.53;;;10.29;100.00
9672;BME280;4874;43.568;27.824;2023-03-21T14:14:51;98856.91;;;10.61;100.00
9672;BME280;4874;43.568;27.824;2023-03-21T14:17:28;98850.53;;;10.81;100.00
9672;BME280;4874;43.568;27.824;2023-03-21T14:20:00;98860.78;;;10.94;100.00
9672;BME280;4874;43.568;27.824;2023-03-21T14:22:28;98862.34;;;10.69;100.00
9672;BME280;4874;43.568;27.824;2023-03-21T14:24:57;98852.66;;;10.50;100.00
9672;BME280;4874;43.568;27.824;2023-03-21T14:27:28;98854.16;;;10.53;100.00
9672;BME280;4874;43.568;27.824;2023-03-21T14:29:57;98851.09;;;10.57;100.00
9672;BME280;4874;43.568;27.824;2023-03-21T14:32:26;98853.88;;;10.83;100.00
9672;BME280;4874;43.568;27.824;2023-03-21T14:34:55;98842.75;;;10.70;100.00
9672;BME280;4874;43.568;27.824;2023-03-21T14:37:31;98856.47;;;10.38;100.00
9672;BME280;4874;43.568;27.824;2023-03-21T14:40:05;98854.19;;;9.97;100.00
9672;BME280;4874;43.568;27.824;2023-03-21T14:42:36;98860.22;;;9.90;100.00
9672;BME280;4874;43.568;27.824;2023-03-21T14:45:14;98810.59;;;9.63;100.00
9672;BME280;4874;43.568;27.824;2023-03-21T14:47:53;98853.06;;;10.00;100.00
9672;BME280;4874;43.568;27.824;2023-03-21T14:50:42;98857.63;;;10.26;100.00
9672;BME280;4874;43.568;27.824;2023-03-21T14:53:20;98846.91;;;9.99;100.00
9672;BME280;4874;43.568;27.824;2023-03-21T14:56:11;98846.44;;;9.77;100.00
9672;BME280;4874;43.568;27.824;2023-03-21T14:58:44;98843.88;;;9.85;100.00
9672;BME280;4874;43.568;27.824;2023-03-21T15:01:19;98838.91;;;9.63;100.00
9672;BME280;4874;43.568;27.824;2023-03-21T15:03:49;98838.66;;;9.56;100.00
9672;BME280;4874;43.568;27.824;2023-03-21T15:06:17;98836.41;;;9.61;100.00
9672;BME280;4874;43.568;27.824;2023-03-21T15:09:03;98842.69;;;9.50;100.00
9672;BME280;4874;43.568;27.824;2023-03-21T15:11:36;98850.84;;;9.95;100.00
9672;BME280;4874;43.568;27.824;2023-03-21T15:14:10;98853.34;;;9.97;100.00
9672;BME280;4874;43.568;27.824;2023-03-21T15:16:38;98850.84;;;9.86;100.00
9672;BME280;4874;43.568;27.824;2023-03-21T15:19:05;98867.84;;;10.12;100.00
9672;BME280;4874;43.568;27.824;2023-03-21T15:21:41;98829.66;;;9.86;100.00
9672;BME280;4874;43.568;27.824;2023-03-21T15:24:27;98848.41;;;9.56;100.00